Maersk Missouri — WAHV — position and weather

sailwx.info

Track history (hours):
 
Tides and Currents Weather Stations Pressure Air Temp Water Temp Dewpoint Dewpoint Depression Visibility Wind Speed Wind Dir Waves Ship Positions

Maersk Missouri

Owner: MAERSK LINE, LIMITED, Norfolk, VA. More information available from US FCC via Universal Licensing System and Coast Guard Vessel Documentation Center.

Last reported at 2014-Dec-22 00:00 UTC. Time now 2014-Dec-22 09:57 UTC.
Position N 24°48' W 085°06'.

Type: Cargo ship. MMSI: 369708000.

Wind from 330 at 6 knots

Waves 0.5 meters (2 feet), 2 second period

Barometer 1018.3 mb
Air temperature 25.5 ° C
Visibility: greater than 10.8 NM
Dewpoint 22.6 ° C
Water temperature 26.1 ° C

Date/timePositionNaut miles runAvg speedWind from/ knotsBaromVisibWave heightAir tempDewpointWater temp
2014-Dec-22 00:00N 24°48' W 085°06'28413.9 330 / 61018.310.8 0.525.522.626.1
2014-Dec-21 03:33N 25°53' W 079°60'1615.6
2014-Dec-21 02:33N 26°09' W 079°59'1615.6
2014-Dec-21 01:34N 26°24' W 079°57'1514.5
2014-Dec-21 00:33N 26°39' W 079°58'5 8.4
2014-Dec-21 00:00N 26°42' W 079°54'1227.6 170 / 81022.310.8 0.524.017.624.9
2014-Dec-20 23:33N 26°54' W 079°57'1515.0
2014-Dec-20 22:34N 27°09' W 079°59'30215.0
2014-Dec-20 02:29N 32°05' W 081°04'5 5.5
2014-Dec-20 01:33N 32°08' W 081°08'0 0.1
2014-Dec-20 00:20N 32°08' W 081°09'0 0.0
2014-Dec-19 23:32N 32°08' W 081°09'0 0.0
2014-Dec-19 22:12N 32°08' W 081°09'0 0.0
2014-Dec-19 21:28N 32°08' W 081°09'0 0.0
2014-Dec-19 20:25N 32°08' W 081°09'0 0.0
2014-Dec-19 19:14N 32°08' W 081°09'0 0.0
2014-Dec-19 18:09N 32°08' W 081°09'0 0.0
2014-Dec-19 17:33N 32°08' W 081°09'0 0.0
2014-Dec-19 15:17N 32°08' W 081°09'0 0.0
2014-Dec-19 13:33N 32°08' W 081°09'0 0.0
2014-Dec-19 12:24N 32°08' W 081°09'3 3.2
2014-Dec-19 11:31N 32°06' W 081°07'221 6.2
2014-Dec-18 00:00N 33°36' W 077°06'9215.3 330 / 71022.110.8 1.016.0 8.121.2
2014-Dec-17 18:00N 34°36' W 075°42'133 4.4 330 / 171021.010.8 1.513.511.622.5
2014-Dec-16 11:31N 36°49' W 075°37'13912.1
2014-Dec-16 00:00N 38°30' W 073°36'5411.8 200 / 51024.110.8 7.6 3.9 9.8
2014-Dec-15 19:26N 39°18' W 074°08'1413.3
2014-Dec-15 18:22N 39°31' W 074°00'1113.3
2014-Dec-15 17:33N 39°41' W 073°55'1414.5
2014-Dec-15 16:33N 39°55' W 073°51'1514.7
2014-Dec-15 15:33N 40°10' W 073°50'10 9.7
2014-Dec-15 14:32N 40°20' W 073°49'8 8.4
2014-Dec-15 13:33N 40°28' W 073°51'1313.1
2014-Dec-15 12:33N 40°37' W 074°03'5 5.0
2014-Dec-15 11:33N 40°39' W 074°09'0 0.3
2014-Dec-15 10:33N 40°40' W 074°09'0 0.0
2014-Dec-15 09:31N 40°40' W 074°09'0 0.0
2014-Dec-15 08:32N 40°40' W 074°09'0 0.0
2014-Dec-15 07:32N 40°40' W 074°09'0 0.0
2014-Dec-15 06:33N 40°40' W 074°09'0 0.0
2014-Dec-15 05:33N 40°40' W 074°09'0 0.0
2014-Dec-15 04:31N 40°40' W 074°09'0 0.0
2014-Dec-15 03:30N 40°40' W 074°09'0 0.0
2014-Dec-15 02:31N 40°40' W 074°09'0 0.0
2014-Dec-15 01:29N 40°40' W 074°09'0 0.0
2014-Dec-15 00:33N 40°40' W 074°09'0 0.0
2014-Dec-14 23:31N 40°40' W 074°09'1 0.8
2014-Dec-14 22:33N 40°39' W 074°09'5 4.9
2014-Dec-14 21:33N 40°37' W 074°03'1111.4
2014-Dec-14 20:33N 40°29' W 073°53'8 7.8
2014-Dec-14 19:33N 40°27' W 073°43'10 8.5
2014-Dec-14 18:25N 40°29' W 073°31'1415.9
2014-Dec-14 17:33N 40°30' W 073°13'3718.7
2014-Dec-14 15:33N 40°30' W 072°23'1918.7
2014-Dec-14 14:33N 40°31' W 071°59'1918.8
2014-Dec-14 13:33N 40°31' W 071°34'1918.8
2014-Dec-14 12:34N 40°32' W 071°09'1220.9
2014-Dec-14 12:00N 40°30' W 070°54'917.6 340 / 181009.010.8 6.3 3.011.5
2014-Dec-14 11:30N 40°32' W 070°43'1818.6
2014-Dec-14 10:32N 40°33' W 070°19'1818.6
2014-Dec-14 09:33N 40°33' W 069°55'1918.3
2014-Dec-14 08:30N 40°34' W 069°30'  
Track history (hours):
 
Tides and Currents Weather Stations Pressure Air Temp Water Temp Dewpoint Dewpoint Depression Visibility Wind Speed Wind Dir Waves Ship Positions

Maersk Missouri

Owner: MAERSK LINE, LIMITED, Norfolk, VA. More information available from US FCC via Universal Licensing System and Coast Guard Vessel Documentation Center.

Last reported at 2014-Dec-22 00:00 UTC. Time now 2014-Dec-22 09:57 UTC.
Position N 24°48' W 085°06'.

Type: Cargo ship. MMSI: 369708000.

Wind from 330 at 6 knots

Waves 0.5 meters (2 feet), 2 second period

Barometer 1018.3 mb
Air temperature 25.5 ° C
Visibility: greater than 10.8 NM
Dewpoint 22.6 ° C
Water temperature 26.1 ° C

Date/timePositionNaut miles runAvg speedWind from/ knotsBaromVisibWave heightAir tempDewpointWater temp
2014-Dec-22 00:00N 24°48' W 085°06'28413.9 330 / 61018.310.8 0.525.522.626.1
2014-Dec-21 03:33N 25°53' W 079°60'1615.6
2014-Dec-21 02:33N 26°09' W 079°59'1615.6
2014-Dec-21 01:34N 26°24' W 079°57'1514.5
2014-Dec-21 00:33N 26°39' W 079°58'5 8.4
2014-Dec-21 00:00N 26°42' W 079°54'1227.6 170 / 81022.310.8 0.524.017.624.9
2014-Dec-20 23:33N 26°54' W 079°57'1515.0
2014-Dec-20 22:34N 27°09' W 079°59'30215.0
2014-Dec-20 02:29N 32°05' W 081°04'5 5.5
2014-Dec-20 01:33N 32°08' W 081°08'0 0.1
2014-Dec-20 00:20N 32°08' W 081°09'0 0.0
2014-Dec-19 23:32N 32°08' W 081°09'0 0.0
2014-Dec-19 22:12N 32°08' W 081°09'0 0.0
2014-Dec-19 21:28N 32°08' W 081°09'0 0.0
2014-Dec-19 20:25N 32°08' W 081°09'0 0.0
2014-Dec-19 19:14N 32°08' W 081°09'0 0.0
2014-Dec-19 18:09N 32°08' W 081°09'0 0.0
2014-Dec-19 17:33N 32°08' W 081°09'0 0.0
2014-Dec-19 15:17N 32°08' W 081°09'0 0.0
2014-Dec-19 13:33N 32°08' W 081°09'0 0.0
2014-Dec-19 12:24N 32°08' W 081°09'3 3.2
2014-Dec-19 11:31N 32°06' W 081°07'221 6.2
2014-Dec-18 00:00N 33°36' W 077°06'9215.3 330 / 71022.110.8 1.016.0 8.121.2
2014-Dec-17 18:00N 34°36' W 075°42'133 4.4 330 / 171021.010.8 1.513.511.622.5
2014-Dec-16 11:31N 36°49' W 075°37'13912.1
2014-Dec-16 00:00N 38°30' W 073°36'5411.8 200 / 51024.110.8 7.6 3.9 9.8
2014-Dec-15 19:26N 39°18' W 074°08'1413.3
2014-Dec-15 18:22N 39°31' W 074°00'1113.3
2014-Dec-15 17:33N 39°41' W 073°55'1414.5
2014-Dec-15 16:33N 39°55' W 073°51'1514.7
2014-Dec-15 15:33N 40°10' W 073°50'10 9.7
2014-Dec-15 14:32N 40°20' W 073°49'8 8.4
2014-Dec-15 13:33N 40°28' W 073°51'1313.1
2014-Dec-15 12:33N 40°37' W 074°03'5 5.0
2014-Dec-15 11:33N 40°39' W 074°09'0 0.3
2014-Dec-15 10:33N 40°40' W 074°09'0 0.0
2014-Dec-15 09:31N 40°40' W 074°09'0 0.0
2014-Dec-15 08:32N 40°40' W 074°09'0 0.0
2014-Dec-15 07:32N 40°40' W 074°09'0 0.0
2014-Dec-15 06:33N 40°40' W 074°09'0 0.0
2014-Dec-15 05:33N 40°40' W 074°09'0 0.0
2014-Dec-15 04:31N 40°40' W 074°09'0 0.0
2014-Dec-15 03:30N 40°40' W 074°09'0 0.0
2014-Dec-15 02:31N 40°40' W 074°09'0 0.0
2014-Dec-15 01:29N 40°40' W 074°09'0 0.0
2014-Dec-15 00:33N 40°40' W 074°09'0 0.0
2014-Dec-14 23:31N 40°40' W 074°09'1 0.8
2014-Dec-14 22:33N 40°39' W 074°09'5 4.9
2014-Dec-14 21:33N 40°37' W 074°03'1111.4
2014-Dec-14 20:33N 40°29' W 073°53'8 7.8
2014-Dec-14 19:33N 40°27' W 073°43'10 8.5
2014-Dec-14 18:25N 40°29' W 073°31'1415.9
2014-Dec-14 17:33N 40°30' W 073°13'3718.7
2014-Dec-14 15:33N 40°30' W 072°23'1918.7
2014-Dec-14 14:33N 40°31' W 071°59'1918.8
2014-Dec-14 13:33N 40°31' W 071°34'1918.8
2014-Dec-14 12:34N 40°32' W 071°09'1220.9
2014-Dec-14 12:00N 40°30' W 070°54'917.6 340 / 181009.010.8 6.3 3.011.5
2014-Dec-14 11:30N 40°32' W 070°43'1818.6
2014-Dec-14 10:32N 40°33' W 070°19'1818.6
2014-Dec-14 09:33N 40°33' W 069°55'1918.3
2014-Dec-14 08:30N 40°34' W 069°30'  

Dump ship's entire track history